Time;durP1;ratioP1;P1;durP2;ratioP2;P2;SDS_P1;SDS_P2;PMS_P1;PMS_P2;Temp;Humidity;BMP_temperature;BMP_pressure;BME280_temperature;BME280_humidity;BME280_pressure;Samples;Min_cycle;Max_cycle;Signal;HPM_P1;HPM_P2
2023/09/04 00:02:03;;;;;;;24.38;11.63;;;;;;;;;;5056178;28;20047;-65
2023/09/04 00:04:29;;;;;;;22.05;9.55;;;;;;;;;;5038291;28;20086;-66
2023/09/04 00:06:55;;;;;;;21.02;9.75;;;;;;;;;;5054123;28;20041;-65
2023/09/04 00:09:20;;;;;;;21.48;12.50;;;;;;;;;;5036605;28;20426;-65
2023/09/04 00:11:46;;;;;;;15.73;8.80;;;;;;;;;;5053942;28;20044;-66
2023/09/04 00:14:12;;;;;;;15.73;8.15;;;;;;;;;;5054430;28;20029;-66
2023/09/04 00:16:38;;;;;;;19.60;10.27;;;;;;;;;;5055727;28;20044;-65
2023/09/04 00:19:04;;;;;;;17.20;8.98;;;;;;;;;;5036749;28;20054;-65
2023/09/04 00:21:30;;;;;;;21.35;9.02;;;;;;;;;;5036326;28;20469;-66
2023/09/04 00:23:55;;;;;;;18.75;8.52;;;;;;;;;;5020416;28;20040;-66
2023/09/04 00:26:22;;;;;;;17.33;8.55;;;;;;;;;;5053065;28;20159;-66
2023/09/04 00:28:47;;;;;;;16.02;7.97;;;;;;;;;;5037137;28;20375;-66
2023/09/04 00:31:13;;;;;;;16.65;8.20;;;;;;;;;;5036933;28;20048;-65
2023/09/04 00:33:39;;;;;;;18.25;7.30;;;;;;;;;;5019855;28;20060;-65
2023/09/04 00:36:04;;;;;;;17.60;8.27;;;;;;;;;;5052595;28;20521;-65
2023/09/04 00:38:30;;;;;;;16.50;9.02;;;;;;;;;;5036053;28;20129;-65
2023/09/04 00:40:55;;;;;;;25.23;9.75;;;;;;;;;;5053144;28;20040;-65
2023/09/04 00:43:21;;;;;;;21.13;9.85;;;;;;;;;;5036085;28;20380;-64
2023/09/04 00:45:47;;;;;;;17.52;10.27;;;;;;;;;;5018859;28;20087;-65
2023/09/04 00:48:13;;;;;;;21.98;9.93;;;;;;;;;;5035993;28;20061;-65
2023/09/04 00:50:40;;;;;;;23.45;10.23;;;;;;;;;;5035961;28;20099;-65
2023/09/04 00:53:07;;;;;;;17.88;8.80;;;;;;;;;;5052439;28;20041;-65
2023/09/04 00:55:32;;;;;;;18.65;8.98;;;;;;;;;;5035700;28;20037;-65
2023/09/04 00:57:58;;;;;;;21.77;8.23;;;;;;;;;;5036060;28;20475;-65
2023/09/04 01:00:27;;;;;;;16.40;8.30;;;;;;;;;;5051958;28;20107;-65
2023/09/04 01:02:54;;;;;;;22.15;8.60;;;;;;;;;;5018984;28;20086;-65
2023/09/04 01:05:20;;;;;;;20.80;9.80;;;;;;;;;;5035755;28;20037;-65
2023/09/04 01:07:48;;;;;;;17.20;8.95;;;;;;;;;;5052165;28;20041;-65
2023/09/04 01:10:14;;;;;;;29.48;8.95;;;;;;;;;;5036700;28;20041;-65
2023/09/04 01:12:40;;;;;;;17.05;8.00;;;;;;;;;;5037994;28;20051;-65
2023/09/04 01:15:06;;;;;;;18.33;8.05;;;;;;;;;;5020784;28;20029;-65
2023/09/04 01:17:33;;;;;;;15.07;8.18;;;;;;;;;;5053067;28;20436;-65
2023/09/04 01:19:59;;;;;;;14.90;8.13;;;;;;;;;;5039550;28;20123;-65
2023/09/04 01:22:26;;;;;;;16.73;7.75;;;;;;;;;;5019070;28;20123;-65
2023/09/04 01:24:51;;;;;;;14.18;7.18;;;;;;;;;;5051749;28;20094;-65
2023/09/04 01:27:17;;;;;;;22.08;8.52;;;;;;;;;;5052805;28;20048;-65
2023/09/04 01:29:50;;;;;;;16.35;9.20;;;;;;;;;;5034966;28;20041;-64
2023/09/04 01:32:19;;;;;;;16.17;7.97;;;;;;;;;;5034828;28;20491;-65
2023/09/04 01:34:48;;;;;;;15.07;7.90;;;;;;;;;;5051541;28;20037;-65
2023/09/04 01:37:14;;;;;;;15.18;9.27;;;;;;;;;;5018533;28;20033;-66
2023/09/04 01:39:40;;;;;;;19.08;9.60;;;;;;;;;;5018424;28;20037;-65
2023/09/04 01:42:06;;;;;;;17.83;9.13;;;;;;;;;;5051493;28;20043;-66
2023/09/04 01:44:32;;;;;;;17.55;9.73;;;;;;;;;;5018799;28;20067;-65
2023/09/04 01:46:58;;;;;;;22.25;10.45;;;;;;;;;;5034862;28;20063;-66
2023/09/04 01:49:24;;;;;;;22.92;10.10;;;;;;;;;;5034734;28;20375;-66
2023/09/04 01:51:51;;;;;;;25.60;10.70;;;;;;;;;;5018306;28;20128;-65
2023/09/04 01:54:17;;;;;;;17.20;9.90;;;;;;;;;;5051269;28;20096;-66
2023/09/04 01:56:43;;;;;;;18.17;10.18;;;;;;;;;;5033914;28;20132;-65
2023/09/04 01:59:08;;;;;;;21.35;8.68;;;;;;;;;;5017929;28;20029;-66
2023/09/04 02:01:35;;;;;;;15.27;9.23;;;;;;;;;;5034219;28;20399;-68
2023/09/04 02:04:01;;;;;;;21.85;10.23;;;;;;;;;;5035117;28;20455;-65
2023/09/04 02:06:28;;;;;;;20.90;9.05;;;;;;;;;;5034371;28;20097;-65
2023/09/04 02:08:56;;;;;;;20.75;10.07;;;;;;;;;;5051682;28;20040;-67
2023/09/04 02:11:21;;;;;;;20.67;10.50;;;;;;;;;;5050808;28;20395;-65
2023/09/04 02:13:50;;;;;;;23.98;10.35;;;;;;;;;;5050946;28;20056;-65
2023/09/04 02:16:17;;;;;;;22.88;11.15;;;;;;;;;;5050803;28;20044;-65
2023/09/04 02:18:44;;;;;;;22.65;10.20;;;;;;;;;;5034176;28;20033;-65
2023/09/04 02:21:09;;;;;;;26.30;13.15;;;;;;;;;;5017951;28;20029;-66
2023/09/04 02:23:35;;;;;;;25.17;13.45;;;;;;;;;;5050902;28;20126;-69
2023/09/04 02:26:02;;;;;;;31.88;17.60;;;;;;;;;;5034634;28;20037;-65
2023/09/04 02:28:29;;;;;;;27.67;16.90;;;;;;;;;;5050699;28;20043;-65
2023/09/04 02:30:55;;;;;;;25.30;13.82;;;;;;;;;;5050389;28;20076;-66
2023/09/04 02:33:21;;;;;;;24.25;16.58;;;;;;;;;;5033905;28;20121;-66
2023/09/04 02:35:48;;;;;;;30.50;17.13;;;;;;;;;;5017723;28;20036;-66
2023/09/04 02:38:14;;;;;;;36.47;21.42;;;;;;;;;;5050714;28;20036;-66
2023/09/04 02:40:39;;;;;;;35.75;22.05;;;;;;;;;;5033994;28;20041;-65
2023/09/04 02:43:06;;;;;;;35.95;22.98;;;;;;;;;;5050555;28;20029;-69
2023/09/04 02:45:33;;;;;;;36.38;22.63;;;;;;;;;;5034153;28;20029;-67
2023/09/04 02:47:59;;;;;;;30.88;20.55;;;;;;;;;;5050518;28;20045;-65
2023/09/04 02:50:24;;;;;;;36.28;22.80;;;;;;;;;;5000975;28;20045;-65
2023/09/04 02:52:50;;;;;;;40.35;22.33;;;;;;;;;;5050705;28;20040;-66
2023/09/04 02:55:16;;;;;;;33.03;20.65;;;;;;;;;;5050481;28;20349;-67
2023/09/04 02:57:41;;;;;;;31.75;19.13;;;;;;;;;;5050407;28;20044;-65
2023/09/04 03:00:07;;;;;;;32.60;19.27;;;;;;;;;;5050526;28;20040;-69
2023/09/04 03:02:34;;;;;;;28.55;16.95;;;;;;;;;;5034089;28;20037;-67
2023/09/04 03:05:00;;;;;;;24.13;13.85;;;;;;;;;;5017885;28;20487;-70
2023/09/04 03:07:26;;;;;;;22.67;13.20;;;;;;;;;;5018240;28;20043;-67
2023/09/04 03:09:55;;;;;;;21.50;13.65;;;;;;;;;;5037575;28;20434;-67
2023/09/04 03:12:22;;;;;;;21.17;12.38;;;;;;;;;;5021304;28;20033;-67
2023/09/04 03:14:53;;;;;;;18.30;11.63;;;;;;;;;;5021287;28;20186;-67
2023/09/04 03:17:19;;;;;;;18.20;10.70;;;;;;;;;;5021006;28;20029;-68
2023/09/04 03:19:46;;;;;;;23.45;9.52;;;;;;;;;;5021181;28;20052;-68
2023/09/04 03:22:13;;;;;;;12.68;7.00;;;;;;;;;;5021047;28;20044;-67
2023/09/04 03:24:38;;;;;;;17.85;7.25;;;;;;;;;;5054970;28;20475;-73
2023/09/04 03:27:05;;;;;;;18.95;6.82;;;;;;;;;;5023412;28;20051;-68
2023/09/04 03:29:30;;;;;;;16.73;7.07;;;;;;;;;;5037836;28;20105;-68
2023/09/04 03:31:58;;;;;;;16.05;8.60;;;;;;;;;;5021030;28;20044;-68
2023/09/04 03:34:27;;;;;;;18.50;7.95;;;;;;;;;;5019726;28;20047;-69
2023/09/04 03:36:53;;;;;;;21.90;8.55;;;;;;;;;;5019806;28;20102;-67
2023/09/04 03:39:20;;;;;;;15.10;6.80;;;;;;;;;;5019855;28;20093;-67
2023/09/04 03:41:45;;;;;;;16.45;7.43;;;;;;;;;;5003118;28;20039;-69
2023/09/04 03:44:11;;;;;;;20.30;8.00;;;;;;;;;;5003158;28;20426;-69
2023/09/04 03:46:37;;;;;;;13.02;7.90;;;;;;;;;;5020056;28;20502;-69
2023/09/04 03:49:04;;;;;;;32.45;8.40;;;;;;;;;;5002883;28;20073;-70
2023/09/04 03:51:30;;;;;;;21.27;8.25;;;;;;;;;;5019381;28;20049;-70
2023/09/04 03:54:01;;;;;;;15.10;9.10;;;;;;;;;;5004033;28;20045;-69
2023/09/04 03:56:29;;;;;;;19.48;8.02;;;;;;;;;;5021016;28;20049;-69
2023/09/04 03:58:55;;;;;;;20.83;8.30;;;;;;;;;;5036578;28;20067;-69
2023/09/04 04:01:22;;;;;;;20.77;9.15;;;;;;;;;;5020612;28;20544;-69
2023/09/04 04:03:48;;;;;;;18.58;8.93;;;;;;;;;;5020109;28;20398;-68
2023/09/04 04:06:14;;;;;;;15.75;8.40;;;;;;;;;;5016886;28;20400;-69
2023/09/04 04:08:41;;;;;;;17.70;8.80;;;;;;;;;;5026856;28;20036;-72
2023/09/04 04:11:07;;;;;;;21.92;8.85;;;;;;;;;;5029699;28;20041;-69
2023/09/04 04:13:32;;;;;;;18.77;8.15;;;;;;;;;;5043772;28;20075;-70
2023/09/04 04:15:59;;;;;;;16.15;8.73;;;;;;;;;;5046293;28;20369;-70
2023/09/04 04:18:26;;;;;;;17.90;8.15;;;;;;;;;;5030237;28;20037;-69
2023/09/04 04:20:52;;;;;;;18.83;8.82;;;;;;;;;;5042961;28;20496;-69
2023/09/04 04:23:18;;;;;;;23.50;8.52;;;;;;;;;;5045944;28;20041;-69
2023/09/04 04:25:44;;;;;;;21.20;9.15;;;;;;;;;;5035862;28;20494;-70
2023/09/04 04:28:09;;;;;;;26.40;9.02;;;;;;;;;;5015006;28;20037;-73
2023/09/04 04:30:36;;;;;;;20.42;8.57;;;;;;;;;;5035854;28;20052;-69
2023/09/04 04:33:07;;;;;;;20.38;8.82;;;;;;;;;;5046230;28;20059;-69
2023/09/04 04:35:33;;;;;;;24.17;9.13;;;;;;;;;;5046018;28;20048;-69
2023/09/04 04:37:59;;;;;;;23.70;10.85;;;;;;;;;;5030654;28;20036;-69
2023/09/04 04:40:26;;;;;;;18.13;9.00;;;;;;;;;;5032755;28;20043;-69
2023/09/04 04:42:52;;;;;;;18.88;8.73;;;;;;;;;;5030180;28;20058;-69
2023/09/04 04:45:18;;;;;;;23.05;8.98;;;;;;;;;;5000706;28;20468;-69
2023/09/04 04:47:44;;;;;;;14.75;8.43;;;;;;;;;;5024001;28;20044;-66
2023/09/04 04:50:11;;;;;;;17.67;8.73;;;;;;;;;;5041024;28;20049;-67
2023/09/04 04:52:36;;;;;;;16.80;8.18;;;;;;;;;;5040477;28;20442;-68
2023/09/04 04:55:02;;;;;;;15.63;7.70;;;;;;;;;;5010136;28;20140;-68
2023/09/04 04:57:30;;;;;;;13.93;7.82;;;;;;;;;;5011028;28;20037;-71
2023/09/04 04:59:56;;;;;;;14.82;7.53;;;;;;;;;;5024872;28;20040;-69
2023/09/04 05:02:22;;;;;;;22.98;8.20;;;;;;;;;;5010782;28;20124;-67
2023/09/04 05:04:49;;;;;;;14.38;7.93;;;;;;;;;;5026695;28;20120;-68
2023/09/04 05:07:17;;;;;;;20.65;8.20;;;;;;;;;;5029569;28;20407;-70
2023/09/04 05:09:43;;;;;;;18.42;8.57;;;;;;;;;;5041490;28;20464;-69
2023/09/04 05:12:09;;;;;;;20.00;7.97;;;;;;;;;;5033769;28;20102;-68
2023/09/04 05:14:35;;;;;;;21.38;8.00;;;;;;;;;;5033626;28;20024;-69
2023/09/04 05:17:02;;;;;;;18.52;8.73;;;;;;;;;;5016611;28;20083;-69
2023/09/04 05:19:28;;;;;;;17.48;8.23;;;;;;;;;;5034573;28;20025;-68
2023/09/04 05:21:55;;;;;;;20.25;7.63;;;;;;;;;;5035299;28;20471;-68
2023/09/04 05:24:21;;;;;;;18.42;8.38;;;;;;;;;;5018907;28;20079;-68
2023/09/04 05:26:46;;;;;;;22.58;7.95;;;;;;;;;;5019070;28;20154;-69
2023/09/04 05:29:13;;;;;;;21.90;8.18;;;;;;;;;;5019334;28;20033;-68
2023/09/04 05:31:38;;;;;;;22.17;8.48;;;;;;;;;;5019211;28;20174;-68
2023/09/04 05:34:04;;;;;;;23.90;7.97;;;;;;;;;;5036232;28;20051;-68
2023/09/04 05:36:31;;;;;;;16.98;8.20;;;;;;;;;;5034970;28;20062;-68
2023/09/04 05:38:56;;;;;;;18.88;8.27;;;;;;;;;;5018538;28;20127;-68
2023/09/04 05:41:22;;;;;;;16.30;7.95;;;;;;;;;;5018830;28;20137;-68
2023/09/04 05:43:48;;;;;;;18.08;7.88;;;;;;;;;;5035311;28;20051;-68
2023/09/04 05:46:14;;;;;;;16.17;8.27;;;;;;;;;;5050312;28;20139;-70
2023/09/04 05:48:40;;;;;;;24.35;7.78;;;;;;;;;;5015251;28;20607;-69
2023/09/04 05:51:07;;;;;;;16.20;8.50;;;;;;;;;;5033650;28;20071;-70
2023/09/04 05:53:33;;;;;;;12.98;7.88;;;;;;;;;;5017404;28;20033;-70
2023/09/04 05:56:05;;;;;;;15.55;7.93;;;;;;;;;;5017733;28;20503;-70
2023/09/04 05:58:31;;;;;;;14.70;7.43;;;;;;;;;;5034606;28;20545;-68
2023/09/04 06:00:57;;;;;;;13.23;6.88;;;;;;;;;;5034745;28;20036;-68
2023/09/04 06:03:26;;;;;;;11.05;6.47;;;;;;;;;;5018513;28;20386;-69
2023/09/04 06:05:51;;;;;;;10.05;5.72;;;;;;;;;;5034529;28;20037;-68
2023/09/04 06:08:17;;;;;;;12.48;5.97;;;;;;;;;;5018239;28;20039;-69
2023/09/04 06:10:43;;;;;;;13.23;6.38;;;;;;;;;;5051510;28;20045;-68
2023/09/04 06:13:09;;;;;;;13.10;5.55;;;;;;;;;;5017978;28;20029;-68
2023/09/04 06:15:34;;;;;;;12.80;5.57;;;;;;;;;;5018034;28;20067;-68
2023/09/04 06:18:00;;;;;;;10.63;6.00;;;;;;;;;;5018119;28;20037;-68
2023/09/04 06:20:25;;;;;;;13.05;4.63;;;;;;;;;;5017975;28;20048;-69
2023/09/04 06:22:52;;;;;;;10.88;4.88;;;;;;;;;;5050063;28;20072;-69
2023/09/04 06:25:18;;;;;;;11.75;4.97;;;;;;;;;;5000652;28;20518;-69
2023/09/04 06:27:44;;;;;;;12.88;4.82;;;;;;;;;;5033979;28;20049;-69
2023/09/04 06:30:09;;;;;;;9.93;5.13;;;;;;;;;;5016701;28;20112;-68
2023/09/04 06:32:35;;;;;;;6.78;3.85;;;;;;;;;;5016838;28;20549;-69
2023/09/04 06:35:01;;;;;;;12.13;4.05;;;;;;;;;;5017090;28;20079;-68
2023/09/04 06:37:27;;;;;;;10.48;4.07;;;;;;;;;;5016554;28;20037;-69
2023/09/04 06:39:52;;;;;;;8.32;3.65;;;;;;;;;;5016740;28;20132;-69
2023/09/04 06:42:18;;;;;;;7.72;3.38;;;;;;;;;;5050119;28;20606;-72
2023/09/04 06:44:45;;;;;;;4.70;3.22;;;;;;;;;;5054088;28;20498;-68
2023/09/04 06:47:11;;;;;;;6.20;3.17;;;;;;;;;;5004198;28;20063;-69
2023/09/04 06:49:40;;;;;;;7.80;3.40;;;;;;;;;;5021531;28;20506;-69
2023/09/04 06:52:05;;;;;;;8.48;3.38;;;;;;;;;;5004309;28;20131;-68
2023/09/04 06:54:31;;;;;;;10.60;3.67;;;;;;;;;;5069739;28;20058;-68
2023/09/04 06:56:56;;;;;;;5.13;3.10;;;;;;;;;;5040521;28;20037;-69
2023/09/04 06:59:22;;;;;;;8.13;3.28;;;;;;;;;;5024054;28;20091;-69
2023/09/04 07:01:48;;;;;;;9.68;3.67;;;;;;;;;;5024095;28;20041;-69
2023/09/04 07:04:15;;;;;;;8.45;3.42;;;;;;;;;;5024095;28;20418;-69
2023/09/04 07:06:42;;;;;;;7.85;3.35;;;;;;;;;;5040410;28;20028;-69
2023/09/04 07:09:08;;;;;;;19.33;4.32;;;;;;;;;;5024015;28;20040;-69
2023/09/04 07:11:35;;;;;;;5.75;3.10;;;;;;;;;;5040078;28;20052;-69
2023/09/04 07:14:02;;;;;;;10.80;3.35;;;;;;;;;;5021360;28;20074;-69
2023/09/04 07:16:28;;;;;;;10.25;3.75;;;;;;;;;;5037974;28;20085;-69
2023/09/04 07:18:54;;;;;;;4.38;2.97;;;;;;;;;;5021536;28;20042;-69
2023/09/04 07:21:20;;;;;;;12.93;3.50;;;;;;;;;;5021526;28;20037;-69
2023/09/04 07:23:46;;;;;;;8.82;3.05;;;;;;;;;;5021456;28;20060;-70
2023/09/04 07:26:12;;;;;;;4.10;2.63;;;;;;;;;;5021051;28;20118;-69
2023/09/04 07:28:38;;;;;;;8.45;3.05;;;;;;;;;;5021184;28;20029;-69
2023/09/04 07:31:16;;;;;;;17.27;3.25;;;;;;;;;;5020984;28;20045;-69
2023/09/04 07:33:42;;;;;;;12.30;2.63;;;;;;;;;;5037447;28;20127;-70
2023/09/04 07:36:09;;;;;;;7.82;2.72;;;;;;;;;;5037753;28;20043;-69
2023/09/04 07:38:37;;;;;;;10.13;3.70;;;;;;;;;;5037566;28;20492;-69
2023/09/04 07:41:03;;;;;;;5.88;2.50;;;;;;;;;;5021160;28;20037;-69
2023/09/04 07:43:32;;;;;;;7.82;2.53;;;;;;;;;;5038258;28;20036;-69
2023/09/04 07:45:58;;;;;;;5.97;2.60;;;;;;;;;;5053980;28;20120;-69
2023/09/04 07:48:24;;;;;;;10.43;2.45;;;;;;;;;;5037275;28;20033;-70
2023/09/04 07:50:52;;;;;;;6.85;2.70;;;;;;;;;;5020722;28;20112;-70
2023/09/04 07:53:17;;;;;;;6.57;2.78;;;;;;;;;;5020688;28;20063;-70
2023/09/04 07:55:43;;;;;;;6.68;2.58;;;;;;;;;;5035890;28;20025;-70
2023/09/04 07:58:10;;;;;;;8.77;2.10;;;;;;;;;;5020718;28;20041;-70
2023/09/04 08:00:38;;;;;;;16.70;2.70;;;;;;;;;;5036725;28;20098;-70
2023/09/04 08:03:04;;;;;;;7.20;2.80;;;;;;;;;;5020410;28;20091;-70
2023/09/04 08:05:29;;;;;;;14.15;2.75;;;;;;;;;;5036644;28;20033;-70
2023/09/04 08:07:55;;;;;;;9.98;2.35;;;;;;;;;;5020065;28;20043;-70
2023/09/04 08:10:22;;;;;;;5.22;2.25;;;;;;;;;;5020308;28;20078;-70
2023/09/04 08:12:48;;;;;;;3.60;2.15;;;;;;;;;;5020103;28;20044;-70
2023/09/04 08:15:15;;;;;;;4.65;1.98;;;;;;;;;;5036885;28;20040;-70
2023/09/04 08:17:41;;;;;;;8.52;2.40;;;;;;;;;;5019887;28;20029;-70
2023/09/04 08:20:07;;;;;;;6.10;2.03;;;;;;;;;;5038582;28;20048;-70
2023/09/04 08:22:33;;;;;;;6.18;2.08;;;;;;;;;;5078531;28;20079;-70
2023/09/04 08:24:59;;;;;;;5.63;1.88;;;;;;;;;;5095512;28;20074;-69
2023/09/04 08:27:24;;;;;;;6.40;2.05;;;;;;;;;;5078569;28;20043;-71
2023/09/04 08:29:51;;;;;;;9.35;1.80;;;;;;;;;;5095535;28;20055;-70
2023/09/04 08:32:16;;;;;;;4.43;1.80;;;;;;;;;;5078833;28;20056;-70
2023/09/04 08:34:45;;;;;;;5.63;1.90;;;;;;;;;;5095664;28;20091;-70
2023/09/04 08:37:11;;;;;;;5.40;2.17;;;;;;;;;;5078220;28;20043;-69
2023/09/04 08:39:37;;;;;;;3.70;1.75;;;;;;;;;;5094722;28;20359;-69
2023/09/04 08:42:07;;;;;;;3.33;1.70;;;;;;;;;;5094991;28;20047;-69
2023/09/04 08:44:35;;;;;;;3.47;1.67;;;;;;;;;;5078298;28;20043;-70
2023/09/04 08:47:03;;;;;;;3.20;1.60;;;;;;;;;;5061560;28;20071;-69
2023/09/04 08:49:29;;;;;;;4.10;1.65;;;;;;;;;;5095174;28;20028;-69
2023/09/04 08:51:55;;;;;;;3.60;1.77;;;;;;;;;;5061048;28;20039;-69
2023/09/04 08:54:22;;;;;;;6.00;1.73;;;;;;;;;;5025545;28;20044;-69
2023/09/04 08:56:48;;;;;;;9.48;2.13;;;;;;;;;;5019496;28;20033;-68
2023/09/04 08:59:13;;;;;;;7.13;2.38;;;;;;;;;;5020033;28;20041;-69
2023/09/04 09:01:40;;;;;;;3.03;1.67;;;;;;;;;;5021020;28;20098;-69
2023/09/04 09:04:06;;;;;;;6.00;1.60;;;;;;;;;;5020619;28;20033;-69
2023/09/04 09:06:33;;;;;;;3.65;1.90;;;;;;;;;;5035736;28;20040;-69
2023/09/04 09:09:00;;;;;;;8.82;1.90;;;;;;;;;;5037893;28;20046;-70
2023/09/04 09:11:26;;;;;;;5.90;2.25;;;;;;;;;;5054921;28;20143;-70
2023/09/04 09:13:52;;;;;;;6.30;1.42;;;;;;;;;;5038611;28;20048;-71
2023/09/04 09:16:22;;;;;;;5.22;1.50;;;;;;;;;;5038035;28;20078;-70
2023/09/04 09:18:49;;;;;;;4.55;1.58;;;;;;;;;;5037799;28;20047;-70
2023/09/04 09:21:24;;;;;;;3.60;1.42;;;;;;;;;;5054248;28;20477;-70
2023/09/04 09:24:08;;;;;;;6.43;1.58;;;;;;;;;;5037595;28;20074;-69
2023/09/04 09:26:37;;;;;;;7.45;1.50;;;;;;;;;;5038188;28;20131;-70
2023/09/04 09:29:03;;;;;;;3.97;1.60;;;;;;;;;;5021759;28;20048;-70
2023/09/04 09:31:31;;;;;;;8.95;1.85;;;;;;;;;;5037451;28;20490;-70
2023/09/04 09:34:00;;;;;;;3.30;1.63;;;;;;;;;;5050662;28;20128;-70
2023/09/04 09:36:27;;;;;;;4.65;1.70;;;;;;;;;;5017887;28;20463;-69
2023/09/04 09:38:54;;;;;;;5.22;1.77;;;;;;;;;;5034341;28;20064;-69
2023/09/04 09:41:20;;;;;;;5.38;1.63;;;;;;;;;;5001444;28;21068;-70
2023/09/04 09:43:45;;;;;;;4.45;2.00;;;;;;;;;;5037659;28;20040;-70
2023/09/04 09:46:16;;;;;;;9.13;2.05;;;;;;;;;;5054150;28;20049;-69
2023/09/04 09:48:46;;;;;;;3.83;1.60;;;;;;;;;;5054074;28;20146;-69
2023/09/04 09:51:12;;;;;;;3.65;1.58;;;;;;;;;;5020723;28;20185;-69
2023/09/04 09:53:45;;;;;;;5.93;2.10;;;;;;;;;;5037296;28;20490;-70
2023/09/04 09:56:11;;;;;;;6.38;1.90;;;;;;;;;;5020539;28;20441;-70
2023/09/04 09:58:51;;;;;;;10.10;2.25;;;;;;;;;;5020407;28;20105;-69
2023/09/04 10:01:17;;;;;;;7.15;1.90;;;;;;;;;;5020654;28;20036;-69
2023/09/04 10:03:51;;;;;;;7.20;2.40;;;;;;;;;;5020252;28;20048;-69
2023/09/04 10:06:33;;;;;;;10.63;2.47;;;;;;;;;;5004024;28;20048;-70
2023/09/04 10:09:00;;;;;;;9.18;3.50;;;;;;;;;;5020789;28;20575;-69
2023/09/04 10:11:27;;;;;;;5.68;2.20;;;;;;;;;;5037478;28;20080;-69
2023/09/04 10:13:54;;;;;;;7.32;2.10;;;;;;;;;;5033753;28;20091;-69
2023/09/04 10:16:44;;;;;;;6.50;1.75;;;;;;;;;;5000547;28;20491;-69
2023/09/04 10:19:10;;;;;;;;;;;;;;;;;;5012392;28;20415;-69
2023/09/04 10:21:39;;;;;;;5.07;1.90;;;;;;;;;;5017784;28;20023;-69
2023/09/04 10:24:07;;;;;;;11.30;1.90;;;;;;;;;;5046393;28;20503;-69
2023/09/04 10:26:39;;;;;;;10.95;1.80;;;;;;;;;;5013882;28;20904;-69
2023/09/04 10:29:08;;;;;;;6.55;1.67;;;;;;;;;;5013598;28;20041;-69
2023/09/04 10:31:36;;;;;;;6.03;1.70;;;;;;;;;;5013936;28;20140;-69
2023/09/04 10:34:03;;;;;;;10.07;3.15;;;;;;;;;;5013871;28;20144;-73
2023/09/04 10:36:36;;;;;;;9.60;4.85;;;;;;;;;;5030307;28;20464;-69
2023/09/04 10:39:03;;;;;;;6.28;2.28;;;;;;;;;;5013613;28;20404;-70
2023/09/04 10:41:30;;;;;;;8.65;2.38;;;;;;;;;;5013580;28;20045;-69
2023/09/04 10:43:55;;;;;;;2.75;1.85;;;;;;;;;;4977452;28;20046;-69
2023/09/04 10:46:22;;;;;;;6.13;1.80;;;;;;;;;;4977439;28;20073;-69
2023/09/04 10:48:50;;;;;;;6.05;2.15;;;;;;;;;;4977495;28;20045;-69
2023/09/04 10:51:25;;;;;;;5.80;2.00;;;;;;;;;;4977384;28;20132;-69
2023/09/04 10:53:53;;;;;;;8.63;2.28;;;;;;;;;;5029821;28;20053;-69
2023/09/04 10:56:18;;;;;;;8.98;2.08;;;;;;;;;;4980837;28;20044;-69
2023/09/04 10:59:05;;;;;;;3.33;1.88;;;;;;;;;;4996532;28;20049;-69
2023/09/04 11:01:32;;;;;;;7.03;1.85;;;;;;;;;;4997086;28;20045;-70
2023/09/04 11:04:00;;;;;;;4.55;2.35;;;;;;;;;;4997393;28;20045;-69
2023/09/04 11:06:26;;;;;;;4.43;1.65;;;;;;;;;;4996761;28;20029;-69
2023/09/04 11:08:52;;;;;;;4.00;2.05;;;;;;;;;;4998273;28;20044;-69
2023/09/04 11:11:25;;;;;;;6.28;1.92;;;;;;;;;;5033367;28;20537;-69
2023/09/04 11:16:53;;;;;;;5.70;1.98;;;;;;;;;;5032942;28;20040;-68
2023/09/04 11:19:20;;;;;;;4.55;2.00;;;;;;;;;;5032859;28;20041;-67
2023/09/04 11:21:46;;;;;;;5.28;1.98;;;;;;;;;;5033027;28;20037;-68
2023/09/04 11:24:12;;;;;;;8.52;2.15;;;;;;;;;;5033283;28;20041;-69
2023/09/04 11:26:38;;;;;;;8.63;2.08;;;;;;;;;;5017504;28;20402;-68
2023/09/04 11:29:05;;;;;;;4.32;1.90;;;;;;;;;;5019277;28;20515;-70
2023/09/04 11:31:32;;;;;;;5.70;1.70;;;;;;;;;;5054177;28;20416;-69
2023/09/04 11:34:00;;;;;;;4.38;1.50;;;;;;;;;;5054192;28;20119;-69
2023/09/04 11:36:26;;;;;;;3.55;1.65;;;;;;;;;;5054484;28;20044;-69
2023/09/04 11:39:05;;;;;;;6.30;1.90;;;;;;;;;;5039141;28;20045;-70
2023/09/04 11:41:30;;;;;;;8.48;1.60;;;;;;;;;;5038740;28;20049;-70
2023/09/04 11:43:56;;;;;;;2.83;1.50;;;;;;;;;;5037912;28;20332;-70
2023/09/04 11:46:22;;;;;;;2.03;1.58;;;;;;;;;;5055998;28;20052;-69
2023/09/04 11:48:48;;;;;;;3.67;1.98;;;;;;;;;;5056215;28;20458;-69
2023/09/04 11:51:15;;;;;;;6.22;2.00;;;;;;;;;;5023383;28;20105;-71
2023/09/04 11:53:43;;;;;;;3.55;1.90;;;;;;;;;;5024639;28;20525;-70
2023/09/04 11:56:10;;;;;;;8.02;1.73;;;;;;;;;;5023146;28;20044;-69
2023/09/04 11:58:37;;;;;;;8.73;1.80;;;;;;;;;;5023311;28;20040;-70
2023/09/04 12:01:02;;;;;;;5.93;1.60;;;;;;;;;;5056168;28;20055;-71
2023/09/04 12:03:29;;;;;;;4.63;2.00;;;;;;;;;;5022811;28;20024;-70
2023/09/04 12:05:57;;;;;;;5.82;1.73;;;;;;;;;;5052295;28;20415;-70
2023/09/04 12:08:22;;;;;;;2.95;1.60;;;;;;;;;;5002884;28;20056;-69
2023/09/04 12:10:51;;;;;;;5.13;1.90;;;;;;;;;;5036606;28;20052;-70
2023/09/04 12:13:17;;;;;;;2.92;1.58;;;;;;;;;;5021314;28;20095;-69
2023/09/04 12:15:43;;;;;;;5.47;2.00;;;;;;;;;;5002416;28;20021;-70
2023/09/04 12:18:11;;;;;;;9.32;2.03;;;;;;;;;;5002369;28;20064;-70
2023/09/04 12:20:44;;;;;;;5.05;1.90;;;;;;;;;;5000107;28;20054;-69
2023/09/04 12:23:10;;;;;;;6.50;1.80;;;;;;;;;;5015261;28;20037;-70
2023/09/04 12:25:39;;;;;;;8.70;1.88;;;;;;;;;;4999326;28;20092;-69
2023/09/04 12:28:06;;;;;;;7.07;2.10;;;;;;;;;;4985157;28;20037;-69
2023/09/04 12:30:40;;;;;;;7.95;2.10;;;;;;;;;;4983202;28;20380;-68
2023/09/04 12:33:09;;;;;;;7.28;2.42;;;;;;;;;;4999505;28;20376;-69
2023/09/04 12:35:34;;;;;;;5.18;2.40;;;;;;;;;;4983586;28;20033;-69
2023/09/04 12:38:00;;;;;;;3.60;1.92;;;;;;;;;;4999340;28;20036;-69
2023/09/04 12:40:26;;;;;;;5.28;1.92;;;;;;;;;;4982511;28;20030;-69
2023/09/04 12:42:52;;;;;;;5.43;2.00;;;;;;;;;;4999246;28;20411;-69
2023/09/04 12:45:19;;;;;;;4.88;2.15;;;;;;;;;;4982917;28;20091;-69
2023/09/04 12:47:44;;;;;;;6.53;2.25;;;;;;;;;;4998862;28;20061;-70
2023/09/04 12:50:11;;;;;;;8.25;2.10;;;;;;;;;;4982817;28;20045;-70
2023/09/04 12:52:37;;;;;;;3.78;2.03;;;;;;;;;;5015638;28;20349;-69
2023/09/04 12:55:05;;;;;;;3.95;2.10;;;;;;;;;;4999746;28;20029;-69
2023/09/04 12:57:30;;;;;;;6.45;2.30;;;;;;;;;;5019910;28;20442;-69
2023/09/04 12:59:56;;;;;;;5.15;2.15;;;;;;;;;;5019912;28;20029;-69
2023/09/04 13:02:23;;;;;;;3.03;2.10;;;;;;;;;;5037585;28;20044;-69
2023/09/04 13:04:49;;;;;;;6.05;2.28;;;;;;;;;;5037200;28;20458;-70
2023/09/04 13:07:15;;;;;;;3.78;2.00;;;;;;;;;;5035928;28;20036;-69
2023/09/04 13:09:41;;;;;;;6.15;2.40;;;;;;;;;;5019992;28;20037;-70
2023/09/04 13:12:07;;;;;;;4.40;1.90;;;;;;;;;;5037382;28;20051;-69
2023/09/04 13:14:33;;;;;;;4.30;1.95;;;;;;;;;;5036179;28;20045;-69
2023/09/04 13:16:59;;;;;;;3.70;1.90;;;;;;;;;;5019317;28;20037;-69
2023/09/04 13:19:25;;;;;;;4.03;1.90;;;;;;;;;;5034792;28;20431;-69
2023/09/04 13:21:51;;;;;;;6.47;2.30;;;;;;;;;;5034723;28;20123;-69
2023/09/04 13:24:17;;;;;;;3.92;1.80;;;;;;;;;;5018453;28;20507;-69
2023/09/04 13:26:43;;;;;;;3.20;2.20;;;;;;;;;;5034477;28;20418;-70
2023/09/04 13:29:09;;;;;;;4.75;1.90;;;;;;;;;;5034686;28;20068;-69
2023/09/04 13:31:35;;;;;;;9.52;2.03;;;;;;;;;;5001696;28;20060;-69
2023/09/04 13:34:01;;;;;;;3.70;1.90;;;;;;;;;;5017869;28;20033;-69
2023/09/04 13:36:28;;;;;;;4.00;1.98;;;;;;;;;;5034151;28;20364;-69
2023/09/04 13:38:53;;;;;;;7.80;2.30;;;;;;;;;;5017361;28;20049;-69
2023/09/04 13:41:19;;;;;;;2.45;1.90;;;;;;;;;;5017542;28;20133;-69
2023/09/04 13:43:45;;;;;;;3.70;2.05;;;;;;;;;;5017488;28;20036;-70
2023/09/04 13:46:11;;;;;;;10.80;2.10;;;;;;;;;;5017627;28;20061;-69
2023/09/04 13:48:37;;;;;;;8.48;1.92;;;;;;;;;;5017437;28;20485;-69
2023/09/04 13:51:05;;;;;;;3.70;1.85;;;;;;;;;;5034806;28;20056;-69
2023/09/04 13:53:32;;;;;;;3.80;2.20;;;;;;;;;;5018233;28;20059;-69
2023/09/04 13:55:59;;;;;;;6.93;1.80;;;;;;;;;;5051861;28;20037;-69
2023/09/04 13:58:26;;;;;;;3.38;2.08;;;;;;;;;;5013774;28;20144;-72
2023/09/04 14:00:54;;;;;;;8.05;2.72;;;;;;;;;;4981529;28;20052;-69
2023/09/04 14:03:20;;;;;;;5.55;2.25;;;;;;;;;;4997730;28;20041;-70
2023/09/04 14:05:49;;;;;;;4.20;2.30;;;;;;;;;;4997834;28;20255;-69
2023/09/04 14:08:15;;;;;;;4.55;2.20;;;;;;;;;;5014221;28;20086;-69
2023/09/04 14:10:41;;;;;;;7.13;2.70;;;;;;;;;;4981627;28;20049;-69
2023/09/04 14:13:09;;;;;;;8.00;2.00;;;;;;;;;;5013822;28;20084;-70
2023/09/04 14:15:36;;;;;;;6.60;2.17;;;;;;;;;;4965676;28;20045;-69
2023/09/04 14:18:02;;;;;;;4.30;1.63;;;;;;;;;;4981188;28;20056;-70
2023/09/04 14:20:33;;;;;;;2.50;1.60;;;;;;;;;;5012749;28;20041;-70
2023/09/04 14:22:59;;;;;;;2.70;1.65;;;;;;;;;;4994651;28;20036;-70
2023/09/04 14:25:25;;;;;;;5.45;2.03;;;;;;;;;;4978512;28;20452;-71
2023/09/04 14:27:51;;;;;;;6.40;1.70;;;;;;;;;;5013974;28;20054;-70
2023/09/04 14:30:17;;;;;;;7.05;3.25;;;;;;;;;;5026110;28;20052;-71
2023/09/04 14:32:43;;;;;;;4.97;2.25;;;;;;;;;;5036236;28;20051;-70
2023/09/04 14:35:10;;;;;;;5.28;2.05;;;;;;;;;;5062138;28;20024;-70
2023/09/04 14:37:36;;;;;;;7.35;2.33;;;;;;;;;;5055373;28;20066;-71